Time;durP1;ratioP1;P1;durP2;ratioP2;P2;SDS_P1;SDS_P2;PMS_P1;PMS_P2;Temp;Humidity;BMP_temperature;BMP_pressure;BME280_temperature;BME280_humidity;BME280_pressure;Samples;Min_cycle;Max_cycle;Signal;HPM_P1;HPM_P2
2022/06/30 00:01:10;;;;;;;7.88;3.42;;;17.30;99.90;;;16.65;100.00;97386.13;5019648;28;20215;-68
2022/06/30 00:03:38;;;;;;;6.20;3.85;;;17.30;99.90;;;16.54;100.00;97386.06;5021452;28;20050;-67
2022/06/30 00:06:05;;;;;;;6.90;3.97;;;17.30;99.90;;;16.67;100.00;97386.84;5019280;28;20050;-68
2022/06/30 00:08:32;;;;;;;5.05;3.10;;;17.30;99.90;;;16.97;100.00;97378.66;5022454;28;20124;-68
2022/06/30 00:11:06;;;;;;;6.38;3.72;;;17.30;99.90;;;16.99;100.00;97386.41;5023545;28;20077;-68
2022/06/30 00:13:40;;;;;;;8.15;4.07;;;17.40;99.90;;;16.83;100.00;97379.66;5022433;28;20053;-69
2022/06/30 00:16:08;;;;;;;8.50;3.60;;;17.50;99.90;;;16.78;100.00;97373.00;5019978;28;20056;-66
2022/06/30 00:18:36;;;;;;;7.35;3.80;;;17.50;99.90;;;16.73;100.00;97374.16;5017615;28;20049;-67
2022/06/30 00:21:04;;;;;;;5.07;3.80;;;17.50;99.90;;;16.64;100.00;97381.84;5018712;28;20133;-67
2022/06/30 00:23:32;;;;;;;5.60;3.65;;;17.50;99.90;;;16.56;100.00;97382.41;5022491;28;20172;-69
2022/06/30 00:25:59;;;;;;;6.25;3.88;;;17.40;99.90;;;16.52;100.00;97387.00;5023620;28;20484;-68
2022/06/30 00:28:26;;;;;;;7.28;3.70;;;17.30;99.90;;;16.43;100.00;97381.56;5023601;28;20112;-68
2022/06/30 00:30:54;;;;;;;7.70;3.55;;;17.20;99.90;;;16.33;100.00;97394.47;5018910;28;20069;-68
2022/06/30 00:33:21;;;;;;;6.95;4.65;;;17.10;99.90;;;16.23;100.00;97380.31;5015094;28;20058;-68
2022/06/30 00:35:49;;;;;;;5.57;4.00;;;17.10;99.90;;;16.25;100.00;97386.28;5019803;28;20071;-69
2022/06/30 00:38:16;;;;;;;7.70;3.50;;;17.00;99.90;;;16.30;100.00;97390.25;5019650;28;20513;-70
2022/06/30 00:40:46;;;;;;;5.28;3.90;;;17.00;99.90;;;16.26;100.00;97391.44;5020743;28;20092;-69
2022/06/30 00:43:14;;;;;;;6.57;3.70;;;17.00;99.90;;;16.28;100.00;97383.44;5017868;28;20532;-69
2022/06/30 00:45:48;;;;;;;6.65;3.47;;;16.90;99.90;;;16.25;100.00;97384.50;5015805;28;20128;-68
2022/06/30 00:48:17;;;;;;;6.10;3.17;;;17.00;99.90;;;16.47;100.00;97385.66;5017016;28;20049;-69
2022/06/30 00:50:45;;;;;;;4.75;3.30;;;16.90;99.90;;;16.50;100.00;97380.19;5018517;28;20468;-69
2022/06/30 00:53:12;;;;;;;4.70;3.45;;;17.00;99.90;;;16.55;100.00;97380.69;5020523;28;20508;-68
2022/06/30 00:55:39;;;;;;;5.13;3.53;;;17.00;99.90;;;16.62;100.00;97381.13;5020109;28;20096;-69
2022/06/30 00:58:08;;;;;;;6.60;3.75;;;17.00;99.90;;;16.33;100.00;97372.66;5016930;28;20136;-68
2022/06/30 01:00:39;;;;;;;6.07;3.80;;;17.10;99.90;;;16.24;100.00;97372.38;5018985;28;20123;-68
2022/06/30 01:03:09;;;;;;;8.10;4.43;;;17.10;99.90;;;16.40;100.00;97373.91;5018934;28;20216;-68
2022/06/30 01:05:37;;;;;;;4.95;3.05;;;17.00;99.90;;;16.50;100.00;97370.53;5019725;28;20134;-68
2022/06/30 01:08:05;;;;;;;9.07;3.72;;;16.90;99.90;;;16.43;100.00;97373.72;5018338;28;20144;-67
2022/06/30 01:13:18;;;;;;;5.70;3.03;;;16.90;99.90;;;16.35;100.00;97360.28;5018615;28;20512;-68
2022/06/30 01:15:45;;;;;;;8.25;3.58;;;17.00;99.90;;;16.43;100.00;97364.06;5017404;28;20425;-67
2022/06/30 01:18:12;;;;;;;5.53;3.10;;;16.90;99.90;;;16.42;100.00;97357.16;5019032;28;20129;-68
2022/06/30 01:20:39;;;;;;;4.80;3.42;;;16.90;99.90;;;16.44;100.00;97355.25;5014787;28;20053;-67
2022/06/30 01:23:06;;;;;;;4.43;3.22;;;16.90;99.90;;;16.37;100.00;97346.16;5017222;28;20478;-67
2022/06/30 01:25:35;;;;;;;6.03;3.15;;;17.00;99.90;;;16.38;100.00;97347.00;5017972;28;21018;-67
2022/06/30 01:28:03;;;;;;;4.72;2.90;;;16.90;99.90;;;16.52;100.00;97358.19;5015957;28;20165;-68
2022/06/30 01:30:30;;;;;;;5.78;2.70;;;16.90;99.90;;;16.54;100.00;97349.38;5018105;28;20053;-69
2022/06/30 01:32:57;;;;;;;4.05;2.25;;;16.90;99.90;;;16.67;100.00;97337.94;5016999;28;20140;-67
2022/06/30 01:35:25;;;;;;;4.35;2.67;;;16.90;99.90;;;16.61;100.00;97332.28;5016089;28;20069;-69
2022/06/30 01:37:57;;;;;;;4.80;2.35;;;16.90;99.90;;;16.74;100.00;97325.22;5020658;28;20615;-68
2022/06/30 01:40:33;;;;;;;4.18;2.55;;;16.90;99.90;;;16.55;100.00;97323.06;5020635;28;20045;-68
2022/06/30 01:43:02;;;;;;;5.22;3.22;;;17.00;99.90;;;16.52;100.00;97320.66;5018112;28;20042;-69
2022/06/30 01:45:29;;;;;;;5.20;3.00;;;16.90;99.90;;;16.40;100.00;97319.75;5015203;28;20141;-68
2022/06/30 01:47:56;;;;;;;5.72;3.00;;;16.90;99.90;;;16.42;100.00;97320.50;5018612;28;21278;-69
2022/06/30 01:50:26;;;;;;;5.82;3.53;;;16.90;99.90;;;16.17;100.00;97318.75;5017967;28;20124;-68
2022/06/30 01:52:54;;;;;;;5.43;4.20;;;16.80;99.90;;;15.92;100.00;97326.59;5014191;28;20132;-70
2022/06/30 01:55:22;;;;;;;5.63;3.75;;;16.70;99.90;;;15.95;100.00;97336.88;5030083;28;20069;-68
2022/06/30 01:57:49;;;;;;;6.18;3.40;;;16.60;99.90;;;16.08;100.00;97335.91;5018571;28;20133;-69
2022/06/30 02:00:24;;;;;;;5.60;3.00;;;16.50;99.90;;;16.23;100.00;97327.94;5017060;28;20077;-70
2022/06/30 02:02:53;;;;;;;4.75;3.03;;;16.50;99.90;;;16.16;100.00;97321.47;5017919;28;20144;-67
2022/06/30 02:05:21;;;;;;;4.78;3.65;;;16.50;99.90;;;15.97;100.00;97322.72;5018996;28;20535;-67
2022/06/30 02:07:48;;;;;;;3.75;3.15;;;16.50;99.90;;;16.16;100.00;97326.69;5016838;28;20053;-67
2022/06/30 02:10:20;;;;;;;7.53;3.58;;;16.50;99.90;;;16.29;100.00;97319.66;5020179;28;20099;-68
2022/06/30 02:12:49;;;;;;;5.80;3.05;;;16.50;99.90;;;16.24;100.00;97312.13;5015073;28;20088;-68
2022/06/30 02:15:36;;;;;;;5.90;2.38;;;16.50;99.90;;;16.09;100.00;97300.94;5021296;28;20144;-67
2022/06/30 02:18:07;;;;;;;3.90;2.90;;;16.60;99.90;;;16.20;100.00;97305.44;5017225;28;20908;-68
2022/06/30 02:20:35;;;;;;;5.32;3.30;;;16.50;99.90;;;16.10;100.00;97299.13;5018890;28;20132;-67
2022/06/30 02:23:04;;;;;;;8.38;3.35;;;16.50;99.90;;;16.03;100.00;97300.50;5019379;28;20133;-67
2022/06/30 02:25:33;;;;;;;4.78;2.97;;;16.40;99.90;;;16.10;100.00;97301.75;5017405;28;20079;-67
2022/06/30 02:28:02;;;;;;;7.57;3.70;;;16.40;99.90;;;15.98;100.00;97303.44;5018510;28;20117;-67
2022/06/30 02:30:29;;;;;;;7.03;3.35;;;16.30;99.90;;;15.95;100.00;97306.28;5018698;28;20042;-67
2022/06/30 02:32:56;;;;;;;4.03;2.38;;;16.40;99.90;;;16.03;100.00;97304.00;5035487;28;20105;-67
2022/06/30 02:35:24;;;;;;;6.65;2.85;;;16.40;99.90;;;16.05;100.00;97303.88;5016468;28;20092;-69
2022/06/30 02:37:51;;;;;;;4.55;2.72;;;16.40;99.90;;;16.04;100.00;97299.59;5016663;28;20552;-69
2022/06/30 02:40:19;;;;;;;4.45;2.53;;;16.40;99.90;;;15.90;100.00;97297.91;5015693;28;20126;-69
2022/06/30 02:42:46;;;;;;;3.83;2.63;;;16.40;99.90;;;16.16;100.00;97293.50;5018192;28;20120;-68
2022/06/30 02:45:13;;;;;;;4.72;3.55;;;16.40;99.90;;;15.81;100.00;97304.63;5019016;28;20057;-69
2022/06/30 02:47:42;;;;;;;4.78;2.78;;;16.40;99.90;;;15.87;100.00;97295.50;5017818;28;20124;-66
2022/06/30 02:50:12;;;;;;;3.20;2.42;;;16.30;99.90;;;15.83;100.00;97300.13;5016033;28;20141;-70
2022/06/30 02:52:39;;;;;;;3.53;2.85;;;16.30;99.90;;;15.89;100.00;97301.47;5017530;28;20076;-68
2022/06/30 02:55:07;;;;;;;5.47;3.10;;;16.30;99.90;;;15.87;100.00;97296.34;5018664;28;20049;-68
2022/06/30 02:57:36;;;;;;;4.88;2.58;;;;;;;15.79;100.00;97292.59;5018752;28;20085;-69
2022/06/30 03:00:06;;;;;;;5.78;2.45;;;16.20;99.90;;;15.88;100.00;97284.09;5017143;28;20108;-69
2022/06/30 03:02:33;;;;;;;5.15;2.90;;;16.20;99.90;;;15.72;100.00;97286.94;5015135;28;20579;-68
2022/06/30 03:05:00;;;;;;;7.40;4.03;;;16.10;99.90;;;15.36;100.00;97296.25;5016097;28;20048;-69
2022/06/30 03:07:28;;;;;;;9.07;5.05;;;16.00;99.90;;;15.03;100.00;97305.41;5012894;28;20068;-68
2022/06/30 03:09:54;;;;;;;7.03;5.05;;;15.90;99.90;;;14.93;100.00;97316.53;5019608;28;20077;-70
2022/06/30 03:12:21;;;;;;;7.18;4.85;;;15.90;99.90;;;14.89;100.00;97315.06;5017652;28;20079;-69
2022/06/30 03:14:48;;;;;;;7.10;4.47;;;15.80;99.90;;;15.13;100.00;97317.88;5021785;28;20053;-69
2022/06/30 03:17:16;;;;;;;6.82;4.45;;;15.70;99.90;;;15.10;100.00;97318.03;5019107;28;20051;-69
2022/06/30 03:19:43;;;;;;;7.68;5.03;;;15.60;99.90;;;15.06;100.00;97318.25;5020514;28;20095;-70
2022/06/30 03:22:10;;;;;;;4.90;3.50;;;15.60;99.90;;;15.25;100.00;97317.88;5016516;28;20128;-68
2022/06/30 03:24:37;;;;;;;8.10;3.88;;;15.70;99.90;;;15.36;100.00;97321.59;5018207;28;20461;-69
2022/06/30 03:27:05;;;;;;;14.07;4.93;;;15.70;99.90;;;15.25;100.00;97311.81;5018653;28;20128;-68
2022/06/30 03:29:32;;;;;;;5.88;4.18;;;15.80;99.90;;;15.16;100.00;97320.28;5018584;28;20181;-68
2022/06/30 03:31:59;;;;;;;5.68;4.10;;;15.80;99.90;;;15.12;100.00;97318.78;5016986;28;20104;-68
2022/06/30 03:34:26;;;;;;;5.60;3.95;;;15.80;99.90;;;15.19;100.00;97323.53;5019575;28;20061;-69
2022/06/30 03:36:53;;;;;;;4.32;3.03;;;15.70;99.90;;;15.39;100.00;97313.53;5019236;28;20049;-67
2022/06/30 03:39:20;;;;;;;7.55;3.25;;;15.70;99.90;;;15.43;100.00;97317.63;5018064;28;20141;-67
2022/06/30 03:41:47;;;;;;;4.60;3.78;;;15.80;99.90;;;15.39;100.00;97306.50;5017191;28;20136;-69
2022/06/30 03:44:14;;;;;;;6.00;4.18;;;15.90;99.90;;;15.35;100.00;97306.81;5017324;28;20073;-67
2022/06/30 03:46:41;;;;;;;4.80;3.70;;;15.90;99.90;;;15.29;100.00;97317.69;5019023;28;20051;-69
2022/06/30 03:49:08;;;;;;;6.85;4.05;;;15.90;99.90;;;15.16;100.00;97312.44;5015700;28;20128;-69
2022/06/30 03:51:35;;;;;;;5.10;4.53;;;15.80;99.90;;;14.98;100.00;97302.22;5015962;28;20042;-67
2022/06/30 03:54:02;;;;;;;6.18;4.28;;;15.80;99.90;;;14.98;100.00;97311.84;5014723;28;20057;-69
2022/06/30 03:56:29;;;;;;;3.70;3.10;;;15.80;99.90;;;15.22;100.00;97318.09;5019508;28;20111;-70
2022/06/30 03:58:56;;;;;;;5.60;4.20;;;15.80;99.90;;;15.27;100.00;97310.78;5020880;28;20091;-69
2022/06/30 04:01:23;;;;;;;5.05;3.33;;;15.80;99.90;;;15.36;100.00;97309.34;5016190;28;20133;-69
2022/06/30 04:03:50;;;;;;;3.90;2.70;;;15.80;99.90;;;15.45;100.00;97302.66;5017980;28;20041;-69
2022/06/30 04:06:18;;;;;;;6.32;3.25;;;15.90;99.90;;;15.46;100.00;97302.56;5016015;28;20113;-69
2022/06/30 04:08:45;;;;;;;6.05;3.53;;;15.90;99.90;;;15.63;100.00;97301.44;5014580;28;20137;-69
2022/06/30 04:11:12;;;;;;;6.10;3.30;;;15.90;99.90;;;15.72;100.00;97293.94;5015697;28;20061;-70
2022/06/30 04:13:39;;;;;;;4.78;3.30;;;16.00;99.90;;;15.60;100.00;97303.41;5009653;28;20054;-69
2022/06/30 04:16:06;;;;;;;5.20;2.80;;;16.00;99.90;;;15.64;100.00;97303.09;5017469;28;20057;-70
2022/06/30 04:18:39;;;;;;;5.22;3.10;;;16.00;99.90;;;15.51;100.00;97310.13;5020419;28;20132;-70
2022/06/30 04:21:06;;;;;;;9.30;3.42;;;16.10;99.90;;;15.50;100.00;97299.75;5018686;28;20436;-68
2022/06/30 04:23:33;;;;;;;5.40;3.22;;;16.10;99.90;;;15.55;100.00;97302.88;5021465;28;20136;-69
2022/06/30 04:26:00;;;;;;;6.63;4.25;;;16.10;99.90;;;15.38;100.00;97302.25;5021771;28;20453;-68
2022/06/30 04:28:27;;;;;;;9.23;5.07;;;16.20;99.90;;;15.26;100.00;97303.06;5020864;28;20125;-71
2022/06/30 04:33:39;;;;;;;7.00;3.90;;;16.10;99.90;;;15.61;100.00;97303.31;5018490;28;20147;-69
2022/06/30 04:36:06;;;;;;;7.22;3.53;;;16.10;99.90;;;15.98;100.00;97290.34;5022639;28;20056;-69
2022/06/30 04:38:34;;;;;;;8.40;5.28;;;16.30;99.90;;;15.57;100.00;97299.22;5019481;28;20144;-68
2022/06/30 04:43:46;;;;;;;6.80;3.67;;;16.40;99.90;;;15.75;100.00;97285.88;5019875;28;20324;-68
2022/06/30 04:46:14;;;;;;;8.20;4.85;;;16.40;99.90;;;15.60;100.00;97285.94;5022772;28;20132;-69
2022/06/30 04:48:42;;;;;;;6.30;3.90;;;16.50;99.90;;;15.69;100.00;97284.47;5023371;28;20041;-68
2022/06/30 04:51:09;;;;;;;3.65;3.30;;;16.50;99.90;;;16.11;100.00;97272.03;5019654;28;22020;-68
2022/06/30 04:53:36;;;;;;;5.22;3.60;;;16.60;99.90;;;16.29;100.00;97268.13;5020063;28;20052;-71
2022/06/30 04:56:03;;;;;;;3.88;3.00;;;16.80;99.90;;;16.42;100.00;97256.75;5018687;28;20049;-70
2022/06/30 04:58:30;;;;;;;7.55;3.25;;;16.90;99.90;;;16.58;100.00;97259.97;5019094;28;20294;-69
2022/06/30 05:00:58;;;;;;;3.20;2.65;;;17.10;99.90;;;16.76;100.00;97249.91;5020265;28;20073;-70
2022/06/30 05:03:25;;;;;;;4.45;3.58;;;17.30;99.90;;;16.73;100.00;97247.53;5016094;28;20525;-68
2022/06/30 05:05:53;;;;;;;5.50;3.28;;;17.50;99.90;;;17.12;100.00;97254.28;5022757;28;20086;-70
2022/06/30 05:08:21;;;;;;;5.95;3.47;;;17.60;99.90;;;16.88;100.00;97235.97;5022079;28;20137;-69
2022/06/30 05:10:49;;;;;;;6.60;4.43;;;17.70;99.90;;;16.80;100.00;97253.19;5020185;28;20152;-69
2022/06/30 05:13:16;;;;;;;8.23;4.68;;;17.70;99.90;;;16.75;100.00;97248.25;5017841;28;20137;-69
2022/06/30 05:15:45;;;;;;;7.35;3.92;;;17.70;99.90;;;16.94;100.00;97242.53;5016295;28;20122;-69
2022/06/30 05:18:13;;;;;;;5.97;4.25;;;17.70;99.90;;;16.83;100.00;97245.09;5018836;28;20500;-69
2022/06/30 05:20:41;;;;;;;4.28;3.63;;;17.70;99.90;;;16.98;100.00;97251.84;5021673;28;20067;-70
2022/06/30 05:23:09;;;;;;;7.78;3.88;;;17.80;99.90;;;16.99;100.00;97252.69;5017103;28;20092;-70
2022/06/30 05:28:22;;;;;;;5.57;3.70;;;17.90;99.90;;;17.28;100.00;97258.38;5020978;28;20651;-68
2022/06/30 05:30:49;;;;;;;7.15;3.63;;;18.00;99.90;;;17.59;100.00;97261.34;5019050;28;20136;-68
2022/06/30 05:33:20;;;;;;;7.38;3.97;;;18.30;99.90;;;17.51;100.00;97249.59;5017721;28;20409;-68
2022/06/30 05:35:48;;;;;;;4.35;3.58;;;18.30;99.90;;;17.27;100.00;97251.47;5018415;28;20136;-68
2022/06/30 05:38:17;;;;;;;5.38;3.35;;;18.30;99.90;;;17.58;100.00;97249.16;5019574;28;20058;-68
2022/06/30 05:40:47;;;;;;;4.32;3.45;;;18.30;99.90;;;18.14;100.00;97246.59;5018105;28;20088;-69
2022/06/30 05:43:18;;;;;;;7.43;2.88;;;18.60;99.90;;;18.14;100.00;97241.34;5020631;28;20087;-68
2022/06/30 05:45:46;;;;;;;5.20;3.40;;;18.70;99.90;;;18.42;100.00;97224.22;5013826;28;20085;-68
2022/06/30 05:48:13;;;;;;;4.45;2.80;;;18.90;99.90;;;18.74;100.00;97215.50;5012997;28;20076;-69
2022/06/30 05:50:41;;;;;;;4.10;2.30;;;19.30;99.90;;;19.00;100.00;97216.88;5012226;28;20041;-68
2022/06/30 05:53:07;;;;;;;4.68;1.90;;;19.50;99.90;;;19.26;100.00;97213.88;5017889;28;20476;-68
2022/06/30 05:55:35;;;;;;;4.95;2.38;;;19.80;99.90;;;19.56;100.00;97199.91;5016116;28;20069;-69
2022/06/30 05:58:07;;;;;;;4.88;2.63;;;20.10;99.90;;;19.29;100.00;97197.00;5019930;28;20057;-68
2022/06/30 06:00:34;;;;;;;5.50;2.92;;;20.30;99.90;;;19.15;100.00;97190.25;5017759;28;20504;-68
2022/06/30 06:03:01;;;;;;;9.93;3.13;;;20.30;99.90;;;19.08;100.00;97194.38;5017376;28;20140;-69
2022/06/30 06:05:28;;;;;;;5.43;2.63;;;20.20;99.90;;;19.21;100.00;97192.38;5021574;28;20042;-68
2022/06/30 06:07:55;;;;;;;4.53;1.85;;;20.20;99.90;;;19.72;100.00;97196.00;5020411;28;20059;-68
2022/06/30 06:10:22;;;;;;;3.40;1.95;;;20.40;99.90;;;20.14;100.00;97195.88;5018854;28;20148;-68
2022/06/30 06:12:50;;;;;;;5.15;1.90;;;20.70;99.90;;;20.30;100.00;97193.59;5016801;28;20053;-68
2022/06/30 06:15:17;;;;;;;4.15;1.88;;;21.00;99.90;;;20.66;100.00;97192.16;5020216;28;20568;-68
2022/06/30 06:17:46;;;;;;;3.92;2.25;;;;;;;20.61;100.00;97194.34;5017700;28;20156;-69
2022/06/30 06:20:17;;;;;;;4.20;2.42;;;21.60;99.90;;;20.61;100.00;97185.59;5019481;28;20081;-69
2022/06/30 06:22:45;;;;;;;5.60;2.50;;;21.60;99.90;;;20.89;100.00;97189.22;5015811;28;20068;-70
2022/06/30 06:25:14;;;;;;;4.05;2.00;;;21.70;99.90;;;21.16;100.00;97180.56;5015078;28;20046;-69
2022/06/30 06:27:42;;;;;;;5.13;2.10;;;21.80;99.90;;;21.43;100.00;97176.41;5018882;28;20105;-67
2022/06/30 06:30:10;;;;;;;6.43;1.90;;;22.10;99.90;;;21.68;100.00;97177.56;5015366;28;20371;-69
2022/06/30 06:32:38;;;;;;;3.42;1.77;;;22.30;99.90;;;21.92;100.00;97180.53;5012514;28;20525;-69
2022/06/30 06:35:06;;;;;;;3.53;2.00;;;22.60;99.90;;;22.17;100.00;97182.63;5015725;28;20092;-69
2022/06/30 06:37:38;;;;;;;3.80;1.65;;;22.90;99.90;;;22.42;100.00;97178.47;5015130;28;20056;-69
2022/06/30 06:40:06;;;;;;;3.35;1.75;;;23.20;99.90;;;22.67;100.00;97168.97;5012685;28;20077;-69
2022/06/30 06:42:33;;;;;;;2.42;1.73;;;23.40;99.90;;;22.74;100.00;97172.69;5015600;28;20053;-68
2022/06/30 06:45:08;;;;;;;4.38;2.10;;;23.60;99.90;;;22.81;100.00;97172.88;5015136;28;20064;-70
2022/06/30 06:47:36;;;;;;;4.07;1.80;;;23.70;99.90;;;22.95;100.00;97170.53;5018479;28;20049;-70
2022/06/30 06:50:04;;;;;;;2.35;1.50;;;23.80;99.90;;;23.18;100.00;97162.16;5015698;28;20073;-70
2022/06/30 06:52:31;;;;;;;7.50;1.45;;;24.00;99.90;;;23.55;100.00;97167.19;5014674;28;20045;-68
2022/06/30 06:54:58;;;;;;;4.07;1.20;;;24.20;99.90;;;23.74;100.00;97157.34;5016139;28;20137;-69
2022/06/30 06:57:32;;;;;;;3.53;1.20;;;24.50;99.90;;;23.85;100.00;97161.56;5015321;28;20046;-68
2022/06/30 06:59:59;;;;;;;3.17;1.10;;;24.60;99.90;;;23.53;100.00;97145.31;5012810;28;20047;-69
2022/06/30 07:02:26;;;;;;;2.70;1.40;;;24.70;99.90;;;23.80;100.00;97140.84;5014417;28;20737;-68
2022/06/30 07:04:53;;;;;;;3.10;1.10;;;24.80;99.90;;;23.68;100.00;97132.31;5013888;28;21887;-67
2022/06/30 07:07:20;;;;;;;1.95;1.00;;;24.70;99.90;;;23.85;100.00;97127.94;5016919;28;20049;-70
2022/06/30 07:09:47;;;;;;;4.43;0.95;;;24.70;99.90;;;23.79;100.00;97121.47;5015083;28;20160;-68
2022/06/30 07:12:14;;;;;;;4.70;1.23;;;24.80;99.90;;;24.24;100.00;97123.91;5012608;28;20606;-70
2022/06/30 07:14:41;;;;;;;3.40;1.30;;;25.00;99.90;;;24.43;100.00;97119.16;5013142;28;20065;-68
2022/06/30 07:17:09;;;;;;;4.22;1.10;;;25.20;99.90;;;24.26;100.00;97111.34;5016168;28;20631;-71
2022/06/30 07:19:36;;;;;;;5.38;1.20;;;25.30;99.90;;;24.43;100.00;97123.63;5013403;28;20392;-69
2022/06/30 07:22:03;;;;;;;4.07;0.80;;;25.30;99.90;;;24.67;100.00;97111.41;5012524;28;20085;-68
2022/06/30 07:24:30;;;;;;;4.22;1.30;;;25.50;99.90;;;24.69;100.00;97115.56;5014359;28;20481;-70
2022/06/30 07:26:57;;;;;;;1.75;0.80;;;25.50;99.90;;;24.77;100.00;97112.91;5016767;28;20120;-67
2022/06/30 07:29:26;;;;;;;5.35;0.98;;;25.50;99.90;;;25.09;100.00;97113.91;5016264;28;20140;-68
2022/06/30 07:31:54;;;;;;;2.95;0.95;;;25.60;99.90;;;24.88;100.00;97111.72;5017384;28;20437;-69
2022/06/30 07:34:21;;;;;;;2.15;0.90;;;25.80;99.90;;;25.26;100.00;97109.41;5012326;28;20564;-68
2022/06/30 07:36:49;;;;;;;4.90;1.17;;;25.90;99.90;;;25.39;100.00;97106.22;5015778;28;20065;-68
2022/06/30 07:39:16;;;;;;;1.98;0.90;;;26.10;99.90;;;25.51;100.00;97099.53;5011879;28;20563;-68
2022/06/30 07:41:43;;;;;;;3.88;1.10;;;26.20;99.90;;;25.21;100.00;97109.09;5015642;28;20975;-67
2022/06/30 07:44:10;;;;;;;6.18;1.10;;;26.20;99.90;;;25.36;100.00;97095.91;5013052;28;20065;-68
2022/06/30 07:46:36;;;;;;;2.63;1.10;;;26.10;99.90;;;25.53;100.00;97099.38;5013386;28;20469;-69
2022/06/30 07:49:04;;;;;;;1.65;0.80;;;26.10;99.90;;;25.51;100.00;97104.03;5015758;28;20153;-68
2022/06/30 07:51:31;;;;;;;3.55;1.00;;;26.20;99.90;;;25.81;100.00;97105.06;5015430;28;20045;-70
2022/06/30 07:53:58;;;;;;;2.20;0.80;;;26.40;99.90;;;26.05;100.00;97109.50;5019712;28;20049;-68
2022/06/30 07:56:25;;;;;;;5.90;1.10;;;26.50;99.90;;;26.16;100.00;97100.28;5016535;28;20141;-70
2022/06/30 07:58:55;;;;;;;2.00;0.80;;;26.80;99.90;;;26.09;100.00;97105.47;5013850;28;20080;-69
2022/06/30 08:01:23;;;;;;;3.70;0.90;;;26.80;99.90;;;26.23;100.00;97096.75;5019473;28;20104;-68
2022/06/30 08:03:50;;;;;;;2.90;0.80;;;26.80;99.90;;;26.21;100.00;97097.94;5018353;28;20072;-68
2022/06/30 08:06:18;;;;;;;3.53;0.70;;;26.90;99.90;;;26.33;100.00;97101.00;5018740;28;20088;-70
2022/06/30 08:08:45;;;;;;;2.53;0.73;;;26.90;99.90;;;26.22;100.00;97096.91;5019448;28;20522;-69
2022/06/30 08:11:12;;;;;;;4.07;0.90;;;26.90;99.90;;;26.00;100.00;97096.72;5023056;28;20124;-70
2022/06/30 08:13:39;;;;;;;5.10;1.80;;;26.90;99.90;;;25.63;100.00;97092.84;5014568;28;20158;-69
2022/06/30 08:16:06;;;;;;;3.10;1.10;;;26.80;99.90;;;26.00;100.00;97090.53;5013923;28;20675;-70
2022/06/30 08:18:33;;;;;;;5.30;1.05;;;26.80;99.90;;;25.72;100.00;97098.13;5033676;28;20497;-69
2022/06/30 08:21:00;;;;;;;3.65;0.90;;;26.70;99.90;;;25.76;100.00;97094.13;5019234;28;20053;-69
2022/06/30 08:23:27;;;;;;;3.42;1.00;;;26.60;99.90;;;26.02;100.00;97094.72;5018355;28;20079;-69
2022/06/30 08:25:54;;;;;;;3.15;0.73;;;26.80;99.90;;;26.00;100.00;97083.41;5018195;28;20073;-68
2022/06/30 08:28:22;;;;;;;4.65;0.80;;;26.90;99.90;;;26.05;100.00;97078.41;5017184;28;20046;-70
2022/06/30 08:30:50;;;;;;;2.80;0.70;;;26.90;99.90;;;26.58;100.00;97081.22;5019661;28;20195;-68
2022/06/30 08:33:18;;;;;;;5.25;0.98;;;27.00;99.90;;;26.55;100.00;97076.28;5030616;28;20054;-70
2022/06/30 08:35:45;;;;;;;3.60;0.70;;;27.30;99.90;;;26.23;100.00;97072.00;5016970;28;20092;-69
2022/06/30 08:38:26;;;;;;;3.95;0.90;;;27.30;99.90;;;26.97;100.00;97082.06;5006531;28;20054;-69
2022/06/30 08:43:42;;;;;;;4.00;0.88;;;27.70;99.90;;;27.12;100.00;97081.09;5015535;28;20049;-69
2022/06/30 08:46:11;;;;;;;3.47;0.90;;;28.00;99.30;;;27.37;100.00;97078.19;5019798;28;20111;-69
2022/06/30 08:48:39;;;;;;;1.63;0.60;;;28.10;99.70;;;27.75;100.00;97072.72;5020243;28;20041;-70
2022/06/30 08:51:08;;;;;;;2.90;0.77;;;28.20;99.70;;;27.06;100.00;97070.31;5015037;28;20050;-68
2022/06/30 08:53:46;;;;;;;2.45;0.80;;;28.30;97.50;;;26.53;100.00;97069.44;5018447;28;20345;-68
2022/06/30 08:56:13;;;;;;;1.48;0.63;;;28.20;97.80;;;26.01;100.00;97066.44;5015236;28;20069;-68
2022/06/30 08:58:44;;;;;;;2.13;0.70;;;27.90;96.30;;;26.50;100.00;97065.28;5015659;28;20528;-68
2022/06/30 09:01:11;;;;;;;2.58;0.80;;;27.90;96.50;;;27.41;100.00;97063.47;5018767;28;20508;-68
2022/06/30 09:03:39;;;;;;;2.97;0.70;;;28.10;97.00;;;27.39;100.00;97067.34;5014746;28;20089;-69
2022/06/30 09:06:06;;;;;;;1.90;0.60;;;28.30;96.80;;;28.03;100.00;97064.06;5016640;28;20049;-71
2022/06/30 09:08:33;;;;;;;3.13;0.60;;;;;;;28.78;100.00;97063.63;5014964;28;20052;-68
2022/06/30 09:11:01;;;;;;;1.40;0.50;;;28.90;96.10;;;28.98;100.00;97054.91;5015367;28;20049;-68
2022/06/30 09:13:41;;;;;;;2.08;0.60;;;29.20;96.60;;;28.60;100.00;97057.06;5015196;28;20077;-69
2022/06/30 09:16:08;;;;;;;3.15;0.70;;;29.20;93.80;;;28.25;100.00;97054.25;5017141;28;20119;-68
2022/06/30 09:18:35;;;;;;;2.78;0.70;;;29.00;94.70;;;27.89;100.00;97060.41;5017540;28;20141;-67
2022/06/30 09:21:18;;;;;;;2.72;0.60;;;28.90;93.30;;;27.79;100.00;97051.88;5013590;28;20072;-69
2022/06/30 09:23:47;;;;;;;2.25;0.73;;;28.60;92.60;;;28.07;100.00;97052.81;5012460;28;20107;-68
2022/06/30 09:26:23;;;;;;;2.03;0.50;;;28.60;93.90;;;28.57;100.00;97048.41;5010750;28;20045;-69
2022/06/30 09:28:55;;;;;;;2.55;0.70;;;28.90;92.00;;;29.23;100.00;97047.28;5017585;28;20088;-70
2022/06/30 09:31:42;;;;;;;3.08;0.50;;;29.30;92.70;;;30.15;100.00;97040.72;5016792;28;20308;-71
2022/06/30 09:34:19;;;;;;;1.40;0.60;;;30.10;92.70;;;30.38;100.00;97040.38;5015483;28;20059;-68
2022/06/30 09:36:50;;;;;;;1.27;0.60;;;30.50;92.60;;;31.64;100.00;97044.00;5014992;28;20495;-69
2022/06/30 09:39:20;;;;;;;3.20;0.57;;;30.90;93.80;;;31.53;100.00;97041.97;5016190;28;21452;-67
2022/06/30 09:41:50;;;;;;;1.23;0.60;;;31.30;93.40;;;32.14;100.00;97044.22;5015716;28;20141;-68
2022/06/30 09:44:23;;;;;;;2.33;0.70;;;31.60;92.60;;;30.56;100.00;97050.50;5012208;28;20077;-70
2022/06/30 09:47:02;;;;;;;2.40;0.60;;;31.50;91.80;;;31.94;100.00;97038.91;5020761;28;20123;-69
2022/06/30 09:49:49;;;;;;;4.70;0.80;;;31.70;92.60;;;30.16;100.00;97045.03;5013895;28;20050;-69
2022/06/30 09:52:23;;;;;;;3.63;0.70;;;31.50;91.20;;;30.28;100.00;97042.63;5013734;28;20049;-69
2022/06/30 09:55:04;;;;;;;3.53;0.80;;;31.30;90.60;;;30.13;100.00;97048.13;5014736;28;20103;-70
2022/06/30 09:57:45;;;;;;;2.60;0.73;;;31.10;91.40;;;30.15;100.00;97040.72;5014737;28;20071;-69
2022/06/30 10:00:18;;;;;;;2.15;0.60;;;30.90;91.60;;;30.28;100.00;97041.81;5016735;28;20140;-70
2022/06/30 10:02:52;;;;;;;2.15;0.60;;;30.70;91.10;;;28.75;100.00;97052.47;5015148;28;20052;-68
2022/06/30 10:05:19;;;;;;;3.97;0.88;;;30.50;90.70;;;28.88;100.00;97046.44;5016174;28;20868;-71
2022/06/30 10:07:46;;;;;;;4.63;0.60;;;30.30;90.30;;;30.76;100.00;97038.94;5012629;28;20108;-67
2022/06/30 10:10:17;;;;;;;6.72;1.20;;;30.40;90.60;;;29.13;100.00;97044.97;5016693;28;20077;-67
2022/06/30 10:12:45;;;;;;;2.10;0.50;;;30.30;90.50;;;29.78;100.00;97039.38;5017109;28;20599;-70
2022/06/30 10:15:15;;;;;;;1.48;0.50;;;30.10;90.90;;;29.09;100.00;97043.72;5014511;28;20073;-70
2022/06/30 10:17:51;;;;;;;3.22;0.90;;;29.80;90.50;;;28.39;100.00;97041.84;5014888;28;20042;-68
2022/06/30 10:20:20;;;;;;;3.50;0.70;;;29.60;90.80;;;29.67;100.00;97035.38;5013672;28;20050;-68
2022/06/30 10:22:48;;;;;;;2.00;0.60;;;29.90;92.00;;;31.61;100.00;97034.53;5011971;28;20053;-69
2022/06/30 10:25:16;;;;;;;7.57;0.80;;;30.40;92.10;;;32.00;100.00;97034.56;5016961;28;20528;-71
2022/06/30 10:27:46;;;;;;;3.85;0.60;;;31.20;90.70;;;32.22;100.00;97029.69;5013231;28;20058;-69
2022/06/30 10:30:16;;;;;;;2.08;0.60;;;31.60;90.80;;;31.61;100.00;97022.94;5013319;28;20120;-69
2022/06/30 10:32:52;;;;;;;3.05;0.80;;;31.60;90.00;;;31.37;100.00;97036.00;5015227;28;20077;-70